sensor_id;sensor_type;location;lat;lon;timestamp;P1;durP1;ratioP1;P2;durP2;ratioP2
11655;SDS011;5884;43.618;1.438;2023-05-01T04:46:38;2.20;;;1.73;;
11655;SDS011;5884;43.618;1.438;2023-05-01T04:49:06;3.70;;;1.70;;
11655;SDS011;5884;43.618;1.438;2023-05-01T04:51:33;3.83;;;1.90;;
11655;SDS011;5884;43.618;1.438;2023-05-01T04:54:00;2.17;;;1.70;;
11655;SDS011;5884;43.618;1.438;2023-05-01T04:56:28;2.67;;;1.57;;
11655;SDS011;5884;43.618;1.438;2023-05-01T04:58:56;1.83;;;1.47;;
11655;SDS011;5884;43.618;1.438;2023-05-01T05:01:23;3.23;;;1.67;;
11655;SDS011;5884;43.618;1.438;2023-05-01T05:03:52;3.43;;;1.67;;
11655;SDS011;5884;43.618;1.438;2023-05-01T05:06:19;3.20;;;1.50;;
11655;SDS011;5884;43.618;1.438;2023-05-01T05:08:46;2.27;;;1.40;;
11655;SDS011;5884;43.618;1.438;2023-05-01T05:11:16;1.53;;;1.10;;
11655;SDS011;5884;43.618;1.438;2023-05-01T05:13:43;3.30;;;1.30;;
11655;SDS011;5884;43.618;1.438;2023-05-01T05:16:10;2.00;;;1.50;;
11655;SDS011;5884;43.618;1.438;2023-05-01T05:18:38;3.17;;;1.40;;
11655;SDS011;5884;43.618;1.438;2023-05-01T05:21:06;3.27;;;1.40;;
11655;SDS011;5884;43.618;1.438;2023-05-01T05:23:34;4.53;;;1.27;;
11655;SDS011;5884;43.618;1.438;2023-05-01T05:26:02;2.40;;;1.40;;
11655;SDS011;5884;43.618;1.438;2023-05-01T05:28:29;1.57;;;1.30;;
11655;SDS011;5884;43.618;1.438;2023-05-01T05:30:57;3.77;;;1.70;;
11655;SDS011;5884;43.618;1.438;2023-05-01T05:33:24;4.00;;;1.43;;
11655;SDS011;5884;43.618;1.438;2023-05-01T05:35:53;3.10;;;1.33;;
11655;SDS011;5884;43.618;1.438;2023-05-01T05:38:21;3.97;;;1.33;;
11655;SDS011;5884;43.618;1.438;2023-05-01T05:40:49;3.63;;;1.53;;
11655;SDS011;5884;43.618;1.438;2023-05-01T05:43:18;5.30;;;1.70;;
11655;SDS011;5884;43.618;1.438;2023-05-01T05:45:45;3.30;;;1.70;;
11655;SDS011;5884;43.618;1.438;2023-05-01T05:48:12;4.00;;;1.47;;
11655;SDS011;5884;43.618;1.438;2023-05-01T05:50:39;4.50;;;1.67;;
11655;SDS011;5884;43.618;1.438;2023-05-01T05:53:06;2.80;;;1.40;;
11655;SDS011;5884;43.618;1.438;2023-05-01T05:55:36;2.93;;;1.40;;
11655;SDS011;5884;43.618;1.438;2023-05-01T05:58:03;3.13;;;1.70;;
11655;SDS011;5884;43.618;1.438;2023-05-01T06:00:30;5.43;;;1.63;;
11655;SDS011;5884;43.618;1.438;2023-05-01T06:02:58;1.90;;;1.50;;
11655;SDS011;5884;43.618;1.438;2023-05-01T06:05:25;2.60;;;1.60;;
11655;SDS011;5884;43.618;1.438;2023-05-01T06:07:52;2.73;;;1.80;;
11655;SDS011;5884;43.618;1.438;2023-05-01T06:10:20;4.03;;;1.40;;
11655;SDS011;5884;43.618;1.438;2023-05-01T06:12:49;3.80;;;1.47;;
11655;SDS011;5884;43.618;1.438;2023-05-01T06:15:16;2.93;;;1.27;;
11655;SDS011;5884;43.618;1.438;2023-05-01T06:17:43;2.90;;;1.27;;
11655;SDS011;5884;43.618;1.438;2023-05-01T06:20:11;1.67;;;1.20;;
11655;SDS011;5884;43.618;1.438;2023-05-01T06:22:39;2.83;;;1.47;;
11655;SDS011;5884;43.618;1.438;2023-05-01T06:25:06;1.70;;;1.30;;
11655;SDS011;5884;43.618;1.438;2023-05-01T06:27:35;4.67;;;1.20;;
11655;SDS011;5884;43.618;1.438;2023-05-01T06:30:04;2.80;;;1.30;;
11655;SDS011;5884;43.618;1.438;2023-05-01T06:32:33;3.43;;;1.07;;
11655;SDS011;5884;43.618;1.438;2023-05-01T06:35:01;3.50;;;1.30;;
11655;SDS011;5884;43.618;1.438;2023-05-01T06:37:28;2.00;;;1.00;;
11655;SDS011;5884;43.618;1.438;2023-05-01T06:39:55;4.10;;;1.20;;
11655;SDS011;5884;43.618;1.438;2023-05-01T06:42:23;1.43;;;1.10;;
11655;SDS011;5884;43.618;1.438;2023-05-01T06:44:50;2.93;;;1.00;;
11655;SDS011;5884;43.618;1.438;2023-05-01T06:47:19;3.20;;;1.03;;
11655;SDS011;5884;43.618;1.438;2023-05-01T06:49:46;2.50;;;1.10;;
11655;SDS011;5884;43.618;1.438;2023-05-01T06:52:13;4.40;;;1.03;;
11655;SDS011;5884;43.618;1.438;2023-05-01T06:54:40;3.23;;;0.90;;
11655;SDS011;5884;43.618;1.438;2023-05-01T06:57:07;1.97;;;0.93;;
11655;SDS011;5884;43.618;1.438;2023-05-01T06:59:35;2.37;;;1.10;;
11655;SDS011;5884;43.618;1.438;2023-05-01T07:02:02;1.70;;;0.80;;
11655;SDS011;5884;43.618;1.438;2023-05-01T07:04:31;3.73;;;1.00;;
11655;SDS011;5884;43.618;1.438;2023-05-01T07:06:58;2.70;;;1.00;;
11655;SDS011;5884;43.618;1.438;2023-05-01T07:09:27;1.83;;;1.00;;
11655;SDS011;5884;43.618;1.438;2023-05-01T07:11:54;2.57;;;1.10;;
11655;SDS011;5884;43.618;1.438;2023-05-01T07:14:21;2.50;;;0.80;;
11655;SDS011;5884;43.618;1.438;2023-05-01T07:16:49;1.83;;;0.90;;
11655;SDS011;5884;43.618;1.438;2023-05-01T07:19:16;5.40;;;1.03;;
11655;SDS011;5884;43.618;1.438;2023-05-01T07:21:44;1.93;;;1.00;;
11655;SDS011;5884;43.618;1.438;2023-05-01T07:24:12;3.17;;;1.00;;
11655;SDS011;5884;43.618;1.438;2023-05-01T07:26:39;3.47;;;1.10;;
11655;SDS011;5884;43.618;1.438;2023-05-01T07:29:06;2.57;;;1.10;;
11655;SDS011;5884;43.618;1.438;2023-05-01T07:31:33;3.73;;;1.20;;
11655;SDS011;5884;43.618;1.438;2023-05-01T07:34:01;2.13;;;1.10;;
11655;SDS011;5884;43.618;1.438;2023-05-01T07:36:29;2.83;;;0.83;;
11655;SDS011;5884;43.618;1.438;2023-05-01T07:38:59;1.10;;;0.90;;
11655;SDS011;5884;43.618;1.438;2023-05-01T07:41:26;1.87;;;0.87;;
11655;SDS011;5884;43.618;1.438;2023-05-01T07:43:53;1.67;;;1.00;;
11655;SDS011;5884;43.618;1.438;2023-05-01T07:46:23;1.93;;;0.90;;
11655;SDS011;5884;43.618;1.438;2023-05-01T07:48:51;2.20;;;1.10;;
11655;SDS011;5884;43.618;1.438;2023-05-01T07:51:18;3.20;;;1.00;;
11655;SDS011;5884;43.618;1.438;2023-05-01T07:53:45;2.50;;;0.90;;
11655;SDS011;5884;43.618;1.438;2023-05-01T07:56:14;3.03;;;1.30;;
11655;SDS011;5884;43.618;1.438;2023-05-01T07:58:42;1.90;;;1.20;;
11655;SDS011;5884;43.618;1.438;2023-05-01T08:01:09;2.97;;;1.20;;
11655;SDS011;5884;43.618;1.438;2023-05-01T08:03:36;1.80;;;1.20;;
11655;SDS011;5884;43.618;1.438;2023-05-01T08:06:04;3.27;;;1.00;;
11655;SDS011;5884;43.618;1.438;2023-05-01T08:08:31;4.40;;;0.90;;
11655;SDS011;5884;43.618;1.438;2023-05-01T08:10:58;1.17;;;0.90;;
11655;SDS011;5884;43.618;1.438;2023-05-01T08:13:27;1.73;;;1.03;;
11655;SDS011;5884;43.618;1.438;2023-05-01T08:15:54;1.77;;;0.80;;
11655;SDS011;5884;43.618;1.438;2023-05-01T08:18:26;5.10;;;1.00;;
11655;SDS011;5884;43.618;1.438;2023-05-01T08:20:53;1.83;;;0.90;;
11655;SDS011;5884;43.618;1.438;2023-05-01T08:23:20;2.27;;;1.33;;
11655;SDS011;5884;43.618;1.438;2023-05-01T08:25:50;1.80;;;1.10;;
11655;SDS011;5884;43.618;1.438;2023-05-01T08:28:17;2.80;;;1.10;;
11655;SDS011;5884;43.618;1.438;2023-05-01T08:30:47;2.17;;;0.83;;
11655;SDS011;5884;43.618;1.438;2023-05-01T08:33:14;3.73;;;1.07;;
11655;SDS011;5884;43.618;1.438;2023-05-01T08:35:41;2.87;;;1.20;;
11655;SDS011;5884;43.618;1.438;2023-05-01T08:38:09;4.03;;;1.30;;
11655;SDS011;5884;43.618;1.438;2023-05-01T08:40:36;2.17;;;1.30;;
11655;SDS011;5884;43.618;1.438;2023-05-01T08:43:04;1.47;;;1.10;;
11655;SDS011;5884;43.618;1.438;2023-05-01T08:45:32;4.17;;;1.60;;
11655;SDS011;5884;43.618;1.438;2023-05-01T08:48:05;1.87;;;1.10;;
11655;SDS011;5884;43.618;1.438;2023-05-01T08:50:34;1.30;;;1.17;;
11655;SDS011;5884;43.618;1.438;2023-05-01T08:53:02;1.20;;;1.10;;
11655;SDS011;5884;43.618;1.438;2023-05-01T08:55:30;3.10;;;0.87;;
11655;SDS011;5884;43.618;1.438;2023-05-01T08:57:59;1.43;;;1.00;;
11655;SDS011;5884;43.618;1.438;2023-05-01T09:00:28;2.00;;;1.10;;
11655;SDS011;5884;43.618;1.438;2023-05-01T09:02:59;1.97;;;1.10;;
11655;SDS011;5884;43.618;1.438;2023-05-01T09:05:30;3.63;;;1.07;;
11655;SDS011;5884;43.618;1.438;2023-05-01T09:07:58;2.23;;;1.27;;
11655;SDS011;5884;43.618;1.438;2023-05-01T09:10:26;2.13;;;0.90;;
11655;SDS011;5884;43.618;1.438;2023-05-01T09:12:55;4.00;;;0.80;;
11655;SDS011;5884;43.618;1.438;2023-05-01T09:15:26;1.33;;;0.97;;
11655;SDS011;5884;43.618;1.438;2023-05-01T09:17:55;1.80;;;1.20;;
11655;SDS011;5884;43.618;1.438;2023-05-01T09:20:25;2.53;;;0.83;;
11655;SDS011;5884;43.618;1.438;2023-05-01T09:22:55;2.00;;;0.50;;
11655;SDS011;5884;43.618;1.438;2023-05-01T09:25:23;1.63;;;0.67;;
11655;SDS011;5884;43.618;1.438;2023-05-01T09:27:50;0.60;;;0.60;;
11655;SDS011;5884;43.618;1.438;2023-05-01T09:30:30;1.63;;;0.63;;
11655;SDS011;5884;43.618;1.438;2023-05-01T09:33:03;2.13;;;0.50;;
11655;SDS011;5884;43.618;1.438;2023-05-01T09:35:48;0.93;;;0.70;;
11655;SDS011;5884;43.618;1.438;2023-05-01T09:38:18;0.93;;;0.60;;
11655;SDS011;5884;43.618;1.438;2023-05-01T09:40:48;3.27;;;0.97;;
11655;SDS011;5884;43.618;1.438;2023-05-01T09:43:25;3.17;;;0.80;;
11655;SDS011;5884;43.618;1.438;2023-05-01T09:46:00;1.70;;;0.80;;
11655;SDS011;5884;43.618;1.438;2023-05-01T09:48:30;1.57;;;0.63;;
11655;SDS011;5884;43.618;1.438;2023-05-01T09:50:59;1.10;;;0.87;;
11655;SDS011;5884;43.618;1.438;2023-05-01T09:53:35;1.23;;;0.90;;
11655;SDS011;5884;43.618;1.438;2023-05-01T09:56:04;1.30;;;0.83;;
11655;SDS011;5884;43.618;1.438;2023-05-01T09:58:32;1.40;;;0.80;;
11655;SDS011;5884;43.618;1.438;2023-05-01T10:00:59;1.97;;;0.60;;
11655;SDS011;5884;43.618;1.438;2023-05-01T10:03:26;2.63;;;0.80;;
11655;SDS011;5884;43.618;1.438;2023-05-01T10:05:54;1.10;;;0.63;;
11655;SDS011;5884;43.618;1.438;2023-05-01T10:08:26;1.60;;;0.80;;
11655;SDS011;5884;43.618;1.438;2023-05-01T10:11:09;0.93;;;0.63;;
11655;SDS011;5884;43.618;1.438;2023-05-01T10:13:36;2.97;;;0.97;;
11655;SDS011;5884;43.618;1.438;2023-05-01T10:16:04;2.20;;;0.80;;
11655;SDS011;5884;43.618;1.438;2023-05-01T10:18:33;2.23;;;0.93;;
11655;SDS011;5884;43.618;1.438;2023-05-01T10:21:01;1.13;;;0.70;;
11655;SDS011;5884;43.618;1.438;2023-05-01T10:23:31;1.40;;;0.90;;
11655;SDS011;5884;43.618;1.438;2023-05-01T10:25:59;2.10;;;0.87;;
11655;SDS011;5884;43.618;1.438;2023-05-01T10:28:28;1.47;;;0.93;;
11655;SDS011;5884;43.618;1.438;2023-05-01T10:30:56;1.40;;;0.97;;
11655;SDS011;5884;43.618;1.438;2023-05-01T10:33:24;1.43;;;0.80;;
11655;SDS011;5884;43.618;1.438;2023-05-01T10:35:53;0.93;;;0.60;;
11655;SDS011;5884;43.618;1.438;2023-05-01T10:38:25;1.67;;;0.70;;
11655;SDS011;5884;43.618;1.438;2023-05-01T10:40:59;1.07;;;0.80;;
11655;SDS011;5884;43.618;1.438;2023-05-01T10:43:28;1.70;;;0.80;;
11655;SDS011;5884;43.618;1.438;2023-05-01T10:48:56;0.80;;;0.60;;
11655;SDS011;5884;43.618;1.438;2023-05-01T10:51:24;0.83;;;0.60;;
11655;SDS011;5884;43.618;1.438;2023-05-01T10:56:50;1.60;;;0.90;;
11655;SDS011;5884;43.618;1.438;2023-05-01T10:59:18;2.00;;;0.90;;
11655;SDS011;5884;43.618;1.438;2023-05-01T11:01:47;2.07;;;1.00;;
11655;SDS011;5884;43.618;1.438;2023-05-01T11:07:21;1.73;;;1.00;;
11655;SDS011;5884;43.618;1.438;2023-05-01T11:09:51;2.53;;;1.00;;
11655;SDS011;5884;43.618;1.438;2023-05-01T11:15:29;1.10;;;1.00;;
11655;SDS011;5884;43.618;1.438;2023-05-01T11:17:58;1.60;;;0.80;;
11655;SDS011;5884;43.618;1.438;2023-05-01T11:23:22;1.40;;;0.90;;
11655;SDS011;5884;43.618;1.438;2023-05-01T11:25:57;1.10;;;0.60;;
11655;SDS011;5884;43.618;1.438;2023-05-01T11:28:29;3.73;;;0.80;;
11655;SDS011;5884;43.618;1.438;2023-05-01T11:30:57;1.60;;;0.67;;
11655;SDS011;5884;43.618;1.438;2023-05-01T11:33:25;1.90;;;0.73;;
11655;SDS011;5884;43.618;1.438;2023-05-01T11:35:56;2.73;;;0.70;;
11655;SDS011;5884;43.618;1.438;2023-05-01T11:38:25;0.50;;;0.50;;
11655;SDS011;5884;43.618;1.438;2023-05-01T11:41:00;0.60;;;0.50;;
11655;SDS011;5884;43.618;1.438;2023-05-01T11:43:29;1.33;;;0.80;;
11655;SDS011;5884;43.618;1.438;2023-05-01T11:45:57;1.27;;;0.63;;
11655;SDS011;5884;43.618;1.438;2023-05-01T11:48:28;1.00;;;0.80;;
11655;SDS011;5884;43.618;1.438;2023-05-01T11:50:56;1.40;;;0.70;;
11655;SDS011;5884;43.618;1.438;2023-05-01T11:53:23;0.70;;;0.60;;
11655;SDS011;5884;43.618;1.438;2023-05-01T11:55:51;1.07;;;0.80;;
11655;SDS011;5884;43.618;1.438;2023-05-01T11:58:30;1.47;;;0.80;;
11655;SDS011;5884;43.618;1.438;2023-05-01T12:01:00;1.83;;;1.10;;
11655;SDS011;5884;43.618;1.438;2023-05-01T12:03:27;1.27;;;0.80;;
11655;SDS011;5884;43.618;1.438;2023-05-01T12:06:07;2.30;;;0.80;;
11655;SDS011;5884;43.618;1.438;2023-05-01T12:08:40;3.00;;;0.80;;
11655;SDS011;5884;43.618;1.438;2023-05-01T12:11:09;0.80;;;0.70;;
11655;SDS011;5884;43.618;1.438;2023-05-01T12:13:39;0.80;;;0.70;;
11655;SDS011;5884;43.618;1.438;2023-05-01T12:16:06;1.57;;;0.80;;
11655;SDS011;5884;43.618;1.438;2023-05-01T12:18:34;3.50;;;0.90;;
11655;SDS011;5884;43.618;1.438;2023-05-01T12:21:02;1.00;;;0.80;;
11655;SDS011;5884;43.618;1.438;2023-05-01T12:23:30;2.30;;;1.10;;
11655;SDS011;5884;43.618;1.438;2023-05-01T12:25:59;1.30;;;0.80;;
11655;SDS011;5884;43.618;1.438;2023-05-01T12:28:27;2.27;;;0.80;;
11655;SDS011;5884;43.618;1.438;2023-05-01T12:31:00;1.57;;;0.80;;
11655;SDS011;5884;43.618;1.438;2023-05-01T12:33:28;5.13;;;1.20;;
11655;SDS011;5884;43.618;1.438;2023-05-01T12:36:07;1.60;;;0.90;;
11655;SDS011;5884;43.618;1.438;2023-05-01T12:38:36;0.93;;;0.80;;
11655;SDS011;5884;43.618;1.438;2023-05-01T12:41:03;2.27;;;0.80;;
11655;SDS011;5884;43.618;1.438;2023-05-01T12:43:34;3.23;;;0.87;;
11655;SDS011;5884;43.618;1.438;2023-05-01T12:46:04;1.33;;;0.73;;
11655;SDS011;5884;43.618;1.438;2023-05-01T12:48:32;0.97;;;0.70;;
11655;SDS011;5884;43.618;1.438;2023-05-01T12:51:05;1.57;;;0.70;;
11655;SDS011;5884;43.618;1.438;2023-05-01T12:53:32;1.83;;;0.70;;
11655;SDS011;5884;43.618;1.438;2023-05-01T12:56:00;1.27;;;0.80;;
11655;SDS011;5884;43.618;1.438;2023-05-01T12:58:33;1.37;;;0.80;;
11655;SDS011;5884;43.618;1.438;2023-05-01T13:01:02;1.90;;;0.80;;
11655;SDS011;5884;43.618;1.438;2023-05-01T13:03:32;1.10;;;0.60;;
11655;SDS011;5884;43.618;1.438;2023-05-01T13:06:00;1.37;;;0.87;;
11655;SDS011;5884;43.618;1.438;2023-05-01T13:08:30;1.07;;;0.80;;
11655;SDS011;5884;43.618;1.438;2023-05-01T13:10:59;1.23;;;0.80;;
11655;SDS011;5884;43.618;1.438;2023-05-01T13:13:36;1.33;;;0.70;;
11655;SDS011;5884;43.618;1.438;2023-05-01T13:16:06;0.93;;;0.63;;
11655;SDS011;5884;43.618;1.438;2023-05-01T13:18:43;0.80;;;0.70;;
11655;SDS011;5884;43.618;1.438;2023-05-01T13:21:12;0.90;;;0.80;;
11655;SDS011;5884;43.618;1.438;2023-05-01T13:23:42;1.47;;;0.70;;
11655;SDS011;5884;43.618;1.438;2023-05-01T13:26:23;1.07;;;0.83;;
11655;SDS011;5884;43.618;1.438;2023-05-01T13:28:53;1.03;;;0.80;;
11655;SDS011;5884;43.618;1.438;2023-05-01T13:31:22;1.27;;;0.70;;
11655;SDS011;5884;43.618;1.438;2023-05-01T13:33:49;1.10;;;0.70;;
11655;SDS011;5884;43.618;1.438;2023-05-01T13:36:19;2.70;;;1.00;;
11655;SDS011;5884;43.618;1.438;2023-05-01T13:38:48;1.30;;;0.80;;
11655;SDS011;5884;43.618;1.438;2023-05-01T13:41:18;1.20;;;1.03;;
11655;SDS011;5884;43.618;1.438;2023-05-01T13:43:47;3.27;;;1.00;;
11655;SDS011;5884;43.618;1.438;2023-05-01T13:46:17;1.53;;;0.80;;
11655;SDS011;5884;43.618;1.438;2023-05-01T13:48:47;2.67;;;0.90;;
11655;SDS011;5884;43.618;1.438;2023-05-01T13:51:19;1.10;;;0.90;;
11655;SDS011;5884;43.618;1.438;2023-05-01T13:53:47;1.23;;;0.97;;
11655;SDS011;5884;43.618;1.438;2023-05-01T13:56:17;2.83;;;1.00;;
11655;SDS011;5884;43.618;1.438;2023-05-01T13:58:44;1.07;;;0.90;;
11655;SDS011;5884;43.618;1.438;2023-05-01T14:01:13;1.37;;;1.10;;
11655;SDS011;5884;43.618;1.438;2023-05-01T14:03:42;3.13;;;1.10;;
11655;SDS011;5884;43.618;1.438;2023-05-01T14:06:12;1.47;;;1.00;;
11655;SDS011;5884;43.618;1.438;2023-05-01T14:08:40;1.73;;;1.20;;
11655;SDS011;5884;43.618;1.438;2023-05-01T14:11:09;1.70;;;1.10;;
11655;SDS011;5884;43.618;1.438;2023-05-01T14:13:38;1.30;;;1.10;;
11655;SDS011;5884;43.618;1.438;2023-05-01T14:16:07;3.07;;;1.20;;
11655;SDS011;5884;43.618;1.438;2023-05-01T14:18:38;2.80;;;1.37;;
11655;SDS011;5884;43.618;1.438;2023-05-01T14:21:10;1.47;;;1.00;;
11655;SDS011;5884;43.618;1.438;2023-05-01T14:23:39;1.40;;;1.00;;
11655;SDS011;5884;43.618;1.438;2023-05-01T14:26:07;2.07;;;1.10;;
11655;SDS011;5884;43.618;1.438;2023-05-01T14:28:37;2.43;;;1.10;;
11655;SDS011;5884;43.618;1.438;2023-05-01T14:31:09;2.03;;;1.13;;
11655;SDS011;5884;43.618;1.438;2023-05-01T14:33:50;1.80;;;1.20;;
11655;SDS011;5884;43.618;1.438;2023-05-01T14:36:27;3.37;;;1.00;;
11655;SDS011;5884;43.618;1.438;2023-05-01T14:38:56;2.13;;;0.90;;
11655;SDS011;5884;43.618;1.438;2023-05-01T14:41:24;1.33;;;0.90;;
11655;SDS011;5884;43.618;1.438;2023-05-01T14:43:53;0.90;;;0.70;;
11655;SDS011;5884;43.618;1.438;2023-05-01T14:46:27;1.47;;;0.90;;
11655;SDS011;5884;43.618;1.438;2023-05-01T14:48:56;1.30;;;1.00;;
11655;SDS011;5884;43.618;1.438;2023-05-01T14:51:24;2.10;;;1.00;;
11655;SDS011;5884;43.618;1.438;2023-05-01T14:53:55;1.03;;;0.93;;
11655;SDS011;5884;43.618;1.438;2023-05-01T14:56:22;1.20;;;0.87;;
11655;SDS011;5884;43.618;1.438;2023-05-01T14:58:49;1.53;;;0.70;;
11655;SDS011;5884;43.618;1.438;2023-05-01T15:01:17;3.13;;;1.10;;
11655;SDS011;5884;43.618;1.438;2023-05-01T15:03:45;2.17;;;0.90;;
11655;SDS011;5884;43.618;1.438;2023-05-01T15:06:12;1.13;;;0.83;;
11655;SDS011;5884;43.618;1.438;2023-05-01T15:08:41;2.17;;;0.80;;
11655;SDS011;5884;43.618;1.438;2023-05-01T15:11:09;2.37;;;0.90;;
11655;SDS011;5884;43.618;1.438;2023-05-01T15:13:38;1.17;;;0.73;;
11655;SDS011;5884;43.618;1.438;2023-05-01T15:16:06;1.80;;;0.80;;
11655;SDS011;5884;43.618;1.438;2023-05-01T15:18:34;0.87;;;0.80;;
11655;SDS011;5884;43.618;1.438;2023-05-01T15:21:02;1.17;;;0.90;;
11655;SDS011;5884;43.618;1.438;2023-05-01T15:23:29;2.43;;;0.87;;
11655;SDS011;5884;43.618;1.438;2023-05-01T15:25:58;1.37;;;0.60;;
11655;SDS011;5884;43.618;1.438;2023-05-01T15:28:26;2.03;;;0.90;;
11655;SDS011;5884;43.618;1.438;2023-05-01T15:30:54;1.43;;;0.90;;
11655;SDS011;5884;43.618;1.438;2023-05-01T15:33:21;1.43;;;0.80;;
11655;SDS011;5884;43.618;1.438;2023-05-01T15:35:49;0.80;;;0.63;;
11655;SDS011;5884;43.618;1.438;2023-05-01T15:38:16;0.87;;;0.70;;
11655;SDS011;5884;43.618;1.438;2023-05-01T15:40:45;0.93;;;0.77;;
11655;SDS011;5884;43.618;1.438;2023-05-01T15:43:15;1.13;;;0.87;;
11655;SDS011;5884;43.618;1.438;2023-05-01T15:45:42;0.80;;;0.60;;
11655;SDS011;5884;43.618;1.438;2023-05-01T15:48:09;1.13;;;0.80;;
11655;SDS011;5884;43.618;1.438;2023-05-01T15:50:37;1.20;;;0.73;;
11655;SDS011;5884;43.618;1.438;2023-05-01T15:53:04;3.20;;;0.93;;
11655;SDS011;5884;43.618;1.438;2023-05-01T15:55:32;1.00;;;0.77;;
11655;SDS011;5884;43.618;1.438;2023-05-01T15:57:59;1.43;;;0.70;;
11655;SDS011;5884;43.618;1.438;2023-05-01T16:00:28;1.47;;;0.83;;
11655;SDS011;5884;43.618;1.438;2023-05-01T16:02:56;1.97;;;0.97;;
11655;SDS011;5884;43.618;1.438;2023-05-01T16:05:26;0.60;;;0.60;;
11655;SDS011;5884;43.618;1.438;2023-05-01T16:07:53;3.53;;;1.03;;
11655;SDS011;5884;43.618;1.438;2023-05-01T16:10:24;1.20;;;0.90;;
11655;SDS011;5884;43.618;1.438;2023-05-01T16:12:51;3.40;;;0.90;;
11655;SDS011;5884;43.618;1.438;2023-05-01T16:15:19;2.07;;;0.77;;
11655;SDS011;5884;43.618;1.438;2023-05-01T16:17:48;2.00;;;0.70;;
11655;SDS011;5884;43.618;1.438;2023-05-01T16:20:18;1.23;;;0.80;;
11655;SDS011;5884;43.618;1.438;2023-05-01T16:22:46;1.27;;;0.67;;
11655;SDS011;5884;43.618;1.438;2023-05-01T16:25:14;1.43;;;0.90;;
11655;SDS011;5884;43.618;1.438;2023-05-01T16:27:42;1.90;;;0.97;;
11655;SDS011;5884;43.618;1.438;2023-05-01T16:30:11;1.00;;;0.80;;
11655;SDS011;5884;43.618;1.438;2023-05-01T16:32:39;1.37;;;1.03;;
11655;SDS011;5884;43.618;1.438;2023-05-01T16:35:10;1.27;;;0.80;;
11655;SDS011;5884;43.618;1.438;2023-05-01T16:37:42;0.70;;;0.60;;
11655;SDS011;5884;43.618;1.438;2023-05-01T16:40:10;1.40;;;0.60;;
11655;SDS011;5884;43.618;1.438;2023-05-01T16:42:42;1.57;;;0.90;;
11655;SDS011;5884;43.618;1.438;2023-05-01T16:45:15;1.07;;;0.90;;
11655;SDS011;5884;43.618;1.438;2023-05-01T16:47:43;1.60;;;0.87;;
11655;SDS011;5884;43.618;1.438;2023-05-01T16:50:12;0.90;;;0.80;;
11655;SDS011;5884;43.618;1.438;2023-05-01T16:52:40;1.63;;;0.73;;
11655;SDS011;5884;43.618;1.438;2023-05-01T16:55:07;1.97;;;1.00;;
11655;SDS011;5884;43.618;1.438;2023-05-01T16:57:34;0.80;;;0.77;;
11655;SDS011;5884;43.618;1.438;2023-05-01T17:00:02;1.13;;;0.90;;
11655;SDS011;5884;43.618;1.438;2023-05-01T17:02:32;1.60;;;1.20;;
11655;SDS011;5884;43.618;1.438;2023-05-01T17:05:00;2.40;;;1.30;;
11655;SDS011;5884;43.618;1.438;2023-05-01T17:07:34;4.73;;;1.60;;
11655;SDS011;5884;43.618;1.438;2023-05-01T17:10:01;1.60;;;1.13;;
11655;SDS011;5884;43.618;1.438;2023-05-01T17:12:29;1.80;;;1.10;;
11655;SDS011;5884;43.618;1.438;2023-05-01T17:14:57;1.43;;;1.07;;
11655;SDS011;5884;43.618;1.438;2023-05-01T17:17:24;1.43;;;1.20;;
11655;SDS011;5884;43.618;1.438;2023-05-01T17:19:51;1.30;;;1.20;;
11655;SDS011;5884;43.618;1.438;2023-05-01T17:22:18;1.73;;;1.00;;
11655;SDS011;5884;43.618;1.438;2023-05-01T17:24:49;1.10;;;0.70;;
11655;SDS011;5884;43.618;1.438;2023-05-01T17:27:16;2.50;;;1.10;;
11655;SDS011;5884;43.618;1.438;2023-05-01T17:29:43;1.83;;;1.30;;
11655;SDS011;5884;43.618;1.438;2023-05-01T17:32:10;2.70;;;1.10;;
11655;SDS011;5884;43.618;1.438;2023-05-01T17:34:38;2.10;;;1.53;;
11655;SDS011;5884;43.618;1.438;2023-05-01T17:37:05;1.80;;;1.10;;
11655;SDS011;5884;43.618;1.438;2023-05-01T17:39:33;2.93;;;1.40;;
11655;SDS011;5884;43.618;1.438;2023-05-01T17:42:02;2.37;;;1.20;;
11655;SDS011;5884;43.618;1.438;2023-05-01T17:44:29;1.70;;;1.20;;
11655;SDS011;5884;43.618;1.438;2023-05-01T17:46:57;1.40;;;1.20;;
11655;SDS011;5884;43.618;1.438;2023-05-01T17:49:25;2.50;;;1.57;;
11655;SDS011;5884;43.618;1.438;2023-05-01T17:51:52;2.03;;;1.40;;
11655;SDS011;5884;43.618;1.438;2023-05-01T17:54:19;1.67;;;1.07;;
11655;SDS011;5884;43.618;1.438;2023-05-01T17:56:46;2.57;;;1.20;;
11655;SDS011;5884;43.618;1.438;2023-05-01T17:59:15;2.67;;;1.40;;
11655;SDS011;5884;43.618;1.438;2023-05-01T18:01:42;1.43;;;1.20;;
11655;SDS011;5884;43.618;1.438;2023-05-01T18:04:09;1.23;;;1.13;;
11655;SDS011;5884;43.618;1.438;2023-05-01T18:06:36;3.57;;;1.63;;
11655;SDS011;5884;43.618;1.438;2023-05-01T18:09:03;1.97;;;1.23;;
11655;SDS011;5884;43.618;1.438;2023-05-01T18:11:31;1.50;;;1.40;;
11655;SDS011;5884;43.618;1.438;2023-05-01T18:13:58;1.93;;;1.50;;
11655;SDS011;5884;43.618;1.438;2023-05-01T18:16:27;2.57;;;1.40;;
11655;SDS011;5884;43.618;1.438;2023-05-01T18:18:54;1.63;;;1.30;;
11655;SDS011;5884;43.618;1.438;2023-05-01T18:21:23;1.67;;;1.20;;
11655;SDS011;5884;43.618;1.438;2023-05-01T18:23:51;3.07;;;1.30;;
11655;SDS011;5884;43.618;1.438;2023-05-01T18:26:18;1.57;;;1.40;;
11655;SDS011;5884;43.618;1.438;2023-05-01T18:28:46;2.07;;;1.50;;
11655;SDS011;5884;43.618;1.438;2023-05-01T18:31:13;2.20;;;1.70;;
11655;SDS011;5884;43.618;1.438;2023-05-01T18:33:42;1.67;;;1.40;;
11655;SDS011;5884;43.618;1.438;2023-05-01T18:36:10;2.80;;;1.50;;
11655;SDS011;5884;43.618;1.438;2023-05-01T18:38:37;1.60;;;1.37;;
11655;SDS011;5884;43.618;1.438;2023-05-01T18:41:04;3.20;;;1.57;;
11655;SDS011;5884;43.618;1.438;2023-05-01T18:43:31;1.93;;;1.33;;
11655;SDS011;5884;43.618;1.438;2023-05-01T18:45:58;2.20;;;1.73;;
11655;SDS011;5884;43.618;1.438;2023-05-01T18:48:26;2.80;;;1.40;;
11655;SDS011;5884;43.618;1.438;2023-05-01T18:50:54;1.80;;;1.50;;
11655;SDS011;5884;43.618;1.438;2023-05-01T18:53:23;2.00;;;1.47;;
11655;SDS011;5884;43.618;1.438;2023-05-01T18:55:50;3.40;;;1.40;;
11655;SDS011;5884;43.618;1.438;2023-05-01T18:58:17;2.77;;;1.57;;
11655;SDS011;5884;43.618;1.438;2023-05-01T19:00:45;3.80;;;1.83;;
11655;SDS011;5884;43.618;1.438;2023-05-01T19:03:12;2.10;;;1.87;;
11655;SDS011;5884;43.618;1.438;2023-05-01T19:05:39;4.10;;;1.60;;
11655;SDS011;5884;43.618;1.438;2023-05-01T19:08:08;3.13;;;1.70;;
11655;SDS011;5884;43.618;1.438;2023-05-01T19:10:35;3.23;;;1.60;;
11655;SDS011;5884;43.618;1.438;2023-05-01T19:13:03;2.33;;;1.83;;
11655;SDS011;5884;43.618;1.438;2023-05-01T19:15:31;2.83;;;2.00;;
11655;SDS011;5884;43.618;1.438;2023-05-01T19:17:59;2.27;;;1.83;;
11655;SDS011;5884;43.618;1.438;2023-05-01T19:20:26;2.87;;;2.20;;
11655;SDS011;5884;43.618;1.438;2023-05-01T19:22:53;5.37;;;2.27;;
11655;SDS011;5884;43.618;1.438;2023-05-01T19:25:22;4.77;;;2.20;;
11655;SDS011;5884;43.618;1.438;2023-05-01T19:27:49;2.80;;;2.50;;
11655;SDS011;5884;43.618;1.438;2023-05-01T19:30:16;2.70;;;2.13;;
11655;SDS011;5884;43.618;1.438;2023-05-01T19:32:44;3.03;;;2.13;;
11655;SDS011;5884;43.618;1.438;2023-05-01T19:35:11;6.57;;;2.37;;
11655;SDS011;5884;43.618;1.438;2023-05-01T19:37:38;3.50;;;2.33;;
11655;SDS011;5884;43.618;1.438;2023-05-01T19:40:06;2.73;;;2.10;;
11655;SDS011;5884;43.618;1.438;2023-05-01T19:42:35;4.40;;;2.23;;
11655;SDS011;5884;43.618;1.438;2023-05-01T19:45:03;2.70;;;1.90;;
11655;SDS011;5884;43.618;1.438;2023-05-01T19:47:32;3.10;;;2.10;;
11655;SDS011;5884;43.618;1.438;2023-05-01T19:49:59;4.13;;;2.10;;
11655;SDS011;5884;43.618;1.438;2023-05-01T19:52:26;2.80;;;2.00;;
11655;SDS011;5884;43.618;1.438;2023-05-01T19:54:54;2.10;;;1.90;;
11655;SDS011;5884;43.618;1.438;2023-05-01T19:57:21;3.13;;;2.47;;
11655;SDS011;5884;43.618;1.438;2023-05-01T19:59:50;3.27;;;1.97;;
11655;SDS011;5884;43.618;1.438;2023-05-01T20:02:19;4.60;;;2.40;;
11655;SDS011;5884;43.618;1.438;2023-05-01T20:04:46;2.47;;;2.00;;
11655;SDS011;5884;43.618;1.438;2023-05-01T20:07:13;4.00;;;2.40;;
11655;SDS011;5884;43.618;1.438;2023-05-01T20:09:40;4.57;;;2.20;;